Time;durP1;ratioP1;P1;durP2;ratioP2;P2;SDS_P1;SDS_P2;PMS_P1;PMS_P2;Temp;Humidity;BMP_temperature;BMP_pressure;BME280_temperature;BME280_humidity;BME280_pressure;Samples;Min_cycle;Max_cycle;Signal;HPM_P1;HPM_P2
2021/06/04 00:00:39;;;;;;;3.42;3.13;;;25.00;57.40;;;;;;5054683;28;20025;-61
2021/06/04 00:03:18;;;;;;;3.88;3.45;;;24.90;57.30;;;;;;5054870;28;20014;-61
2021/06/04 00:05:50;;;;;;;3.42;3.13;;;24.90;57.40;;;;;;5054904;28;20395;-61
2021/06/04 00:08:18;;;;;;;3.90;3.50;;;24.90;57.30;;;;;;5054522;28;20044;-61
2021/06/04 00:11:03;;;;;;;3.20;2.80;;;24.90;57.40;;;;;;5054482;28;20032;-62
2021/06/04 00:13:35;;;;;;;3.47;3.17;;;24.90;57.40;;;;;;5054542;28;20112;-61
2021/06/04 00:16:30;;;;;;;3.65;3.35;;;24.90;57.40;;;;;;5053181;28;20147;-61
2021/06/04 00:18:57;;;;;;;4.15;3.47;;;24.80;57.30;;;;;;5047686;28;20204;-61
2021/06/04 00:21:30;;;;;;;3.40;3.10;;;25.10;57.50;;;;;;5054486;28;20502;-61
2021/06/04 00:23:59;;;;;;;3.80;3.45;;;24.80;57.30;;;;;;5054614;28;20028;-61
2021/06/04 00:26:27;;;;;;;3.78;3.25;;;25.00;57.40;;;;;;5054193;28;20033;-61
2021/06/04 00:28:53;;;;;;;4.25;3.00;;;24.90;57.40;;;;;;5053019;28;20423;-61
2021/06/04 00:31:22;;;;;;;3.40;3.10;;;25.30;57.60;;;;;;5054192;28;20468;-61
2021/06/04 00:33:50;;;;;;;3.08;2.78;;;24.50;57.10;;;;;;5054529;28;20021;-61
2021/06/04 00:36:15;;;;;;;3.28;2.92;;;24.80;57.30;;;;;;5054407;28;20294;-61
2021/06/04 00:38:41;;;;;;;3.25;3.05;;;24.80;57.30;;;;;;5054344;28;20267;-61
2021/06/04 00:41:18;;;;;;;3.30;3.00;;;24.90;57.40;;;;;;5054366;28;20056;-61
2021/06/04 00:43:43;;;;;;;3.40;3.10;;;24.80;57.30;;;;;;5053770;28;20255;-61
2021/06/04 00:46:09;;;;;;;3.25;2.95;;;24.80;57.40;;;;;;5053997;28;20310;-61
2021/06/04 00:48:36;;;;;;;3.20;2.90;;;24.80;57.40;;;;;;5053675;28;20020;-61
2021/06/04 00:51:05;;;;;;;3.67;3.38;;;24.70;57.30;;;;;;5053752;28;20062;-61
2021/06/04 00:53:30;;;;;;;3.60;3.30;;;24.60;57.90;;;;;;5053740;28;20102;-61
2021/06/04 00:55:57;;;;;;;3.97;3.47;;;24.70;57.30;;;;;;5053082;28;20072;-61
2021/06/04 00:58:29;;;;;;;3.35;2.97;;;24.80;57.40;;;;;;5052738;28;20017;-61
2021/06/04 01:00:57;;;;;;;3.72;3.25;;;24.70;57.30;;;;;;5052795;28;20032;-61
2021/06/04 01:03:26;;;;;;;3.40;3.10;;;24.70;57.30;;;;;;5052197;28;20021;-61
2021/06/04 01:05:59;;;;;;;3.45;3.15;;;24.70;57.40;;;;;;5051138;28;20029;-61
2021/06/04 01:09:00;;;;;;;3.28;2.92;;;25.10;57.60;;;;;;5052930;28;20044;-61
2021/06/04 01:11:52;;;;;;;3.90;3.13;;;24.70;57.30;;;;;;5052563;28;20064;-61
2021/06/04 01:14:34;;;;;;;2.88;2.60;;;24.70;57.30;;;;;;5052317;28;20029;-61
2021/06/04 01:17:25;;;;;;;3.75;3.10;;;24.70;57.40;;;;;;5052349;28;20025;-61
2021/06/04 01:19:59;;;;;;;3.10;2.80;;;24.70;57.40;;;;;;5052610;28;20029;-61
2021/06/04 01:22:29;;;;;;;4.30;3.03;;;24.70;57.40;;;;;;5052648;28;20387;-61
2021/06/04 01:25:23;;;;;;;3.25;2.95;;;25.10;57.60;;;;;;5052112;28;20032;-61
2021/06/04 01:27:51;;;;;;;3.15;2.85;;;24.70;57.40;;;;;;5051241;28;20025;-61
2021/06/04 01:30:44;;;;;;;3.00;2.80;;;24.90;57.50;;;;;;5050759;28;20021;-61
2021/06/04 01:33:16;;;;;;;3.53;3.20;;;25.10;57.60;;;;;;5052159;28;20035;-61
2021/06/04 01:35:46;;;;;;;3.70;3.15;;;24.60;57.30;;;;;;5052366;28;20123;-61
2021/06/04 01:38:14;;;;;;;3.35;2.88;;;24.70;57.40;;;;;;5052101;28;20048;-61
2021/06/04 01:40:45;;;;;;;3.13;2.75;;;25.00;57.50;;;;;;5052038;28;20024;-61
2021/06/04 01:43:35;;;;;;;3.20;2.92;;;24.60;57.30;;;;;;5052412;28;20021;-61
2021/06/04 01:46:12;;;;;;;3.30;3.00;;;24.60;57.30;;;;;;5052297;28;20041;-61
2021/06/04 01:48:43;;;;;;;3.42;3.13;;;24.60;57.30;;;;;;5052066;28;20036;-62
2021/06/04 01:51:20;;;;;;;3.60;3.20;;;24.60;57.30;;;;;;5050440;28;20455;-62
2021/06/04 01:53:50;;;;;;;5.00;2.70;;;24.60;57.30;;;;;;5052194;28;20025;-62
2021/06/04 01:56:33;;;;;;;3.33;3.03;;;24.60;57.30;;;;;;5042969;28;265443;-62
2021/06/04 01:59:08;;;;;;;3.10;2.90;;;24.60;57.30;;;;;;5051348;28;20395;-61
2021/06/04 02:01:41;;;;;;;2.90;2.70;;;25.00;57.50;;;;;;5052748;28;20027;-62
2021/06/04 02:04:10;;;;;;;4.05;3.10;;;24.90;57.50;;;;;;5052876;28;20024;-62
2021/06/04 02:06:37;;;;;;;3.28;2.95;;;24.50;57.30;;;;;;5052348;28;20068;-62
2021/06/04 02:09:08;;;;;;;3.78;3.03;;;24.50;57.30;;;;;;5052386;28;20021;-62
2021/06/04 02:11:34;;;;;;;3.70;3.35;;;25.00;57.60;;;;;;5052576;28;20110;-62
2021/06/04 02:14:04;;;;;;;3.17;2.90;;;24.90;57.50;;;;;;5052268;28;20028;-62
2021/06/04 02:16:54;;;;;;;3.35;3.05;;;24.80;58.10;;;;;;5050896;28;20451;-62
2021/06/04 02:19:35;;;;;;;3.78;2.90;;;24.60;57.30;;;;;;5052733;28;20427;-61
2021/06/04 02:22:28;;;;;;;3.78;2.95;;;24.50;57.30;;;;;;5052314;28;20025;-62
2021/06/04 02:25:10;;;;;;;2.92;2.72;;;24.50;57.30;;;;;;5052224;28;20463;-62
2021/06/04 02:27:48;;;;;;;3.72;3.17;;;24.50;57.30;;;;;;5052471;28;20108;-62
2021/06/04 02:30:21;;;;;;;4.22;2.70;;;24.50;57.30;;;;;;5052632;28;20074;-62
2021/06/04 02:32:52;;;;;;;3.75;3.38;;;24.50;57.40;;;;;;5052271;28;20134;-61
2021/06/04 02:35:33;;;;;;;3.00;2.78;;;24.50;57.30;;;;;;5050955;28;20029;-62
2021/06/04 02:38:05;;;;;;;3.60;3.30;;;25.00;57.60;;;;;;5052331;28;20061;-62
2021/06/04 02:40:39;;;;;;;2.90;2.70;;;24.50;57.30;;;;;;5052522;28;20017;-61
2021/06/04 02:43:37;;;;;;;3.78;3.00;;;24.50;57.30;;;;;;5052196;28;20067;-62
2021/06/04 02:46:30;;;;;;;3.47;3.08;;;24.50;57.30;;;;;;5038941;28;20088;-62
2021/06/04 02:48:56;;;;;;;3.50;3.20;;;24.40;57.30;;;;;;5052435;28;20033;-62
2021/06/04 02:51:27;;;;;;;4.00;3.10;;;24.40;57.30;;;;;;5052306;28;20399;-62
2021/06/04 02:54:04;;;;;;;3.17;2.88;;;24.40;57.30;;;;;;5052256;28;20024;-62
2021/06/04 02:56:31;;;;;;;3.42;2.95;;;24.40;57.30;;;;;;5051900;28;20052;-62
2021/06/04 02:59:11;;;;;;;3.90;3.50;;;24.40;57.30;;;;;;5052126;28;20055;-62
2021/06/04 03:01:50;;;;;;;4.05;3.40;;;24.40;57.30;;;;;;5051790;28;20479;-62
2021/06/04 03:04:16;;;;;;;3.20;2.90;;;24.40;57.30;;;;;;5051623;28;20044;-62
2021/06/04 03:06:47;;;;;;;3.35;2.70;;;24.40;57.30;;;;;;5052171;28;20403;-62
2021/06/04 03:09:14;;;;;;;;;;;24.40;57.30;;;;;;5052394;28;20029;-62
2021/06/04 03:11:43;;;;;;;3.53;3.22;;;24.40;57.30;;;;;;5052155;28;19911;-62
2021/06/04 03:14:11;;;;;;;4.22;3.13;;;24.60;57.40;;;;;;5051797;28;20029;-62
2021/06/04 03:16:36;;;;;;;4.07;3.53;;;24.40;57.30;;;;;;5051844;28;20063;-62
2021/06/04 03:19:07;;;;;;;3.72;2.95;;;24.30;57.30;;;;;;5051847;28;20017;-62
2021/06/04 03:21:37;;;;;;;3.42;3.13;;;24.40;57.30;;;;;;5051802;28;20468;-62
2021/06/04 03:24:05;;;;;;;;;;;24.60;57.40;;;;;;5052164;28;20040;-62
2021/06/04 03:26:32;;;;;;;3.83;3.50;;;24.30;57.30;;;;;;5053116;28;20287;-62
2021/06/04 03:29:01;;;;;;;3.38;3.08;;;24.10;57.20;;;;;;5055416;28;20025;-62
2021/06/04 03:31:30;;;;;;;4.63;3.25;;;24.80;57.60;;;;;;5055463;28;20024;-62
2021/06/04 03:33:56;;;;;;;3.43;3.13;;;24.30;57.30;;;;;;5055448;28;20051;-62
2021/06/04 03:36:26;;;;;;;5.18;2.90;;;24.40;57.40;;;;;;5055112;28;20021;-62
2021/06/04 03:38:52;;;;;;;4.60;3.38;;;24.00;57.20;;;;;;5055734;28;20059;-62
2021/06/04 03:41:22;;;;;;;4.22;3.13;;;24.30;57.30;;;;;;5053910;28;20028;-62
2021/06/04 03:43:48;;;;;;;3.10;2.90;;;24.30;57.30;;;;;;5054974;28;20450;-61
2021/06/04 03:46:14;;;;;;;3.53;2.95;;;24.20;57.30;;;;;;5055198;28;20163;-62
2021/06/04 03:48:40;;;;;;;4.10;3.17;;;24.00;57.20;;;;;;5054865;28;20016;-63
2021/06/04 03:51:10;;;;;;;3.58;3.22;;;24.20;57.30;;;;;;5055064;28;20075;-62
2021/06/04 03:53:37;;;;;;;3.85;3.03;;;24.20;57.30;;;;;;5055110;28;20400;-62
2021/06/04 03:56:06;;;;;;;3.55;2.78;;;24.30;57.40;;;;;;5054577;28;20442;-62
2021/06/04 03:58:31;;;;;;;3.47;3.10;;;24.20;57.30;;;;;;5055102;28;20020;-62
2021/06/04 04:01:03;;;;;;;3.45;3.15;;;24.70;57.60;;;;;;5054666;28;20495;-62
2021/06/04 04:03:28;;;;;;;3.53;3.22;;;24.20;57.30;;;;;;5054824;28;20475;-62
2021/06/04 04:05:54;;;;;;;3.40;3.10;;;24.20;57.30;;;;;;5054856;28;20064;-62
2021/06/04 04:08:24;;;;;;;4.15;3.55;;;24.30;57.40;;;;;;5054429;28;20426;-62
2021/06/04 04:10:49;;;;;;;4.53;3.58;;;24.20;57.40;;;;;;5054487;28;20025;-62
2021/06/04 04:13:16;;;;;;;3.75;3.08;;;24.20;57.40;;;;;;5054480;28;20017;-62
2021/06/04 04:15:43;;;;;;;3.47;2.97;;;24.30;57.40;;;;;;5054394;28;20476;-62
2021/06/04 04:18:09;;;;;;;3.97;3.25;;;24.20;57.40;;;;;;5054387;28;20021;-63
2021/06/04 04:20:38;;;;;;;3.60;3.30;;;24.20;57.40;;;;;;5054682;28;20472;-62
2021/06/04 04:23:06;;;;;;;4.65;3.13;;;24.60;57.60;;;;;;5054145;28;20032;-63
2021/06/04 04:25:36;;;;;;;3.55;2.92;;;24.20;57.40;;;;;;5054407;28;20033;-63
2021/06/04 04:28:04;;;;;;;4.13;3.15;;;24.10;57.40;;;;;;5054048;28;20491;-63
2021/06/04 04:30:30;;;;;;;3.20;2.90;;;24.20;57.40;;;;;;5052877;28;20021;-63
2021/06/04 04:32:56;;;;;;;3.65;3.35;;;24.20;57.40;;;;;;5054099;28;20387;-63
2021/06/04 04:35:27;;;;;;;3.17;2.88;;;24.20;57.50;;;;;;5054075;28;20110;-63
2021/06/04 04:37:53;;;;;;;3.90;3.10;;;24.20;57.40;;;;;;5052908;28;20068;-63
2021/06/04 04:40:21;;;;;;;3.70;3.30;;;24.20;57.40;;;;;;5052690;28;20032;-63
2021/06/04 04:42:47;;;;;;;4.30;3.28;;;24.60;57.60;;;;;;5053868;28;20104;-63
2021/06/04 04:45:17;;;;;;;3.38;2.95;;;24.30;57.50;;;;;;5052399;28;20033;-62
2021/06/04 04:47:43;;;;;;;4.70;3.03;;;24.20;57.40;;;;;;5053633;28;20047;-63
2021/06/04 04:50:10;;;;;;;3.70;2.90;;;24.20;57.50;;;;;;5053957;28;20476;-63
2021/06/04 04:52:35;;;;;;;3.15;2.85;;;24.20;57.40;;;;;;5054006;28;20024;-62
2021/06/04 04:55:02;;;;;;;3.42;3.03;;;24.40;79.90;;;;;;5053583;28;20438;-62
2021/06/04 04:57:29;;;;;;;4.25;3.05;;;24.10;57.40;;;;;;5053617;28;20045;-63
2021/06/04 04:59:55;;;;;;;4.32;2.90;;;24.40;57.50;;;;;;5052695;28;20444;-63
2021/06/04 05:02:22;;;;;;;3.47;3.17;;;24.20;58.10;;;;;;5053671;28;20021;-63
2021/06/04 05:04:48;;;;;;;3.55;2.72;;;24.70;57.70;;;;;;5053730;28;20452;-63
2021/06/04 05:07:14;;;;;;;3.35;2.78;;;24.40;57.60;;;;;;5053397;28;20056;-63
2021/06/04 05:09:39;;;;;;;4.32;2.60;;;24.60;57.70;;;;;;5052198;28;20364;-63
2021/06/04 05:12:06;;;;;;;3.10;2.90;;;24.10;57.50;;;;;;5053601;28;20075;-63
2021/06/04 05:14:31;;;;;;;3.78;3.08;;;24.20;57.50;;;;;;5053501;28;20009;-62
2021/06/04 05:16:57;;;;;;;3.38;3.00;;;23.90;57.40;;;;;;5053509;28;20476;-60
2021/06/04 05:19:23;;;;;;;2.97;2.72;;;24.20;57.50;;;;;;5053162;28;20021;-61
2021/06/04 05:21:49;;;;;;;3.38;2.95;;;24.20;57.60;;;;;;5053523;28;20021;-61
2021/06/04 05:24:14;;;;;;;4.05;3.30;;;24.40;57.70;;;;;;5053245;28;20025;-59
2021/06/04 05:26:40;;;;;;;3.00;2.70;;;24.20;57.60;;;;;;5051877;28;20041;-60
2021/06/04 05:29:06;;;;;;;3.33;2.80;;;24.20;57.60;;;;;;5053360;28;20048;-60
2021/06/04 05:31:33;;;;;;;4.28;2.97;;;24.20;57.50;;;;;;5053248;28;20055;-59
2021/06/04 05:33:59;;;;;;;4.38;3.38;;;24.20;57.60;;;;;;5052890;28;20021;-59
2021/06/04 05:36:32;;;;;;;3.05;2.78;;;24.20;57.60;;;;;;5053289;28;20159;-59
2021/06/04 05:39:00;;;;;;;2.78;2.53;;;24.20;57.70;;;;;;5052937;28;20103;-59
2021/06/04 05:41:26;;;;;;;3.05;2.75;;;24.40;57.80;;;;;;5053208;28;20064;-59
2021/06/04 05:43:52;;;;;;;3.65;3.03;;;24.30;57.70;;;;;;5052820;28;20024;-59
2021/06/04 05:46:20;;;;;;;2.50;2.30;;;24.20;57.60;;;;;;5051765;28;20384;-59
2021/06/04 05:48:46;;;;;;;3.17;2.85;;;24.20;57.70;;;;;;5052769;28;20024;-60
2021/06/04 05:51:25;;;;;;;4.90;2.92;;;24.60;57.80;;;;;;5052628;28;20495;-59
2021/06/04 05:53:50;;;;;;;4.47;2.70;;;24.20;57.60;;;;;;5052650;28;20032;-59
2021/06/04 05:56:19;;;;;;;4.85;2.70;;;24.20;57.50;;;;;;5052458;28;20052;-59
2021/06/04 05:58:46;;;;;;;3.17;2.80;;;24.20;57.70;;;;;;5052570;28;20025;-59
2021/06/04 06:01:19;;;;;;;6.45;3.10;;;24.20;57.80;;;;;;5052721;28;20021;-60
2021/06/04 06:03:45;;;;;;;5.18;2.97;;;24.30;58.20;;;;;;5052526;28;20033;-59
2021/06/04 06:06:13;;;;;;;7.05;3.08;;;24.50;58.10;;;;;;5052628;28;20124;-59
2021/06/04 06:08:40;;;;;;;5.10;3.10;;;24.30;57.90;;;;;;5052568;28;20517;-59
2021/06/04 06:11:06;;;;;;;7.45;3.38;;;24.20;58.30;;;;;;5052779;28;20167;-60
2021/06/04 06:13:32;;;;;;;5.28;2.72;;;24.20;57.90;;;;;;5051110;28;20028;-59
2021/06/04 06:15:58;;;;;;;6.00;2.80;;;24.20;57.90;;;;;;5052789;28;20029;-59
2021/06/04 06:18:24;;;;;;;3.13;2.70;;;24.20;57.80;;;;;;5052800;28;20380;-59
2021/06/04 06:20:51;;;;;;;4.30;3.10;;;24.70;58.10;;;;;;5052432;28;20031;-59
2021/06/04 06:23:25;;;;;;;4.30;2.65;;;24.20;57.70;;;;;;5052102;28;20028;-59
2021/06/04 06:25:55;;;;;;;4.43;2.70;;;24.20;57.80;;;;;;5051242;28;20369;-59
2021/06/04 06:28:23;;;;;;;3.78;3.13;;;24.60;57.80;;;;;;5052483;28;20025;-58
2021/06/04 06:30:49;;;;;;;4.15;3.00;;;24.20;57.50;;;;;;5052307;28;20021;-59
2021/06/04 06:33:15;;;;;;;3.42;2.70;;;24.20;57.50;;;;;;5052283;28;20021;-58
2021/06/04 06:35:46;;;;;;;6.90;3.10;;;24.20;57.50;;;;;;5052374;28;20032;-58
2021/06/04 06:38:12;;;;;;;3.25;2.80;;;24.20;57.60;;;;;;5051918;28;20022;-59
2021/06/04 06:40:39;;;;;;;6.47;3.67;;;24.20;57.50;;;;;;5052283;28;20032;-59
2021/06/04 06:43:06;;;;;;;4.00;3.10;;;24.20;57.40;;;;;;5050498;28;20049;-59
2021/06/04 06:45:32;;;;;;;5.55;3.13;;;24.70;57.80;;;;;;5052200;28;20033;-59
2021/06/04 06:47:58;;;;;;;5.15;2.97;;;24.70;57.70;;;;;;5052040;28;20017;-59
2021/06/04 06:50:28;;;;;;;6.22;3.13;;;24.20;57.40;;;;;;5050701;28;20046;-57
2021/06/04 06:52:54;;;;;;;4.47;2.85;;;24.20;57.40;;;;;;5051636;28;20032;-57
2021/06/04 06:55:20;;;;;;;6.32;3.03;;;24.30;57.40;;;;;;5051605;28;20377;-57
2021/06/04 06:57:45;;;;;;;4.55;3.28;;;24.20;57.30;;;;;;5051974;28;20144;-59
2021/06/04 07:00:17;;;;;;;6.82;3.33;;;24.20;57.60;;;;;;5052158;28;20063;-59
2021/06/04 07:02:43;;;;;;;4.90;2.97;;;24.20;57.50;;;;;;5055721;28;20018;-60
2021/06/04 07:05:09;;;;;;;4.00;3.28;;;24.30;57.50;;;;;;5055701;28;20387;-60
2021/06/04 07:07:38;;;;;;;13.90;3.42;;;24.20;57.30;;;;;;5055324;28;20514;-59
2021/06/04 07:10:06;;;;;;;8.85;3.58;;;24.20;57.30;;;;;;5055821;28;20107;-60
2021/06/04 07:12:32;;;;;;;5.53;3.33;;;24.20;57.30;;;;;;5055692;28;20025;-60
2021/06/04 07:14:58;;;;;;;5.57;3.50;;;24.30;57.30;;;;;;5055202;28;20090;-59
2021/06/04 07:17:24;;;;;;;5.97;3.15;;;24.30;57.30;;;;;;5055709;28;20021;-59
2021/06/04 07:19:50;;;;;;;8.18;3.85;;;24.30;57.40;;;;;;5055215;28;20488;-59
2021/06/04 07:22:15;;;;;;;4.47;3.13;;;24.30;57.40;;;;;;5055307;28;20067;-59
2021/06/04 07:24:41;;;;;;;9.35;3.50;;;24.40;57.50;;;;;;5055126;28;20022;-59
2021/06/04 07:27:07;;;;;;;6.13;3.40;;;24.30;57.40;;;;;;5055667;28;20033;-59
2021/06/04 07:29:32;;;;;;;9.52;3.22;;;24.20;57.30;;;;;;5055638;28;20495;-60
2021/06/04 07:31:58;;;;;;;7.72;3.70;;;24.30;57.30;;;;;;5055748;28;20029;-60
2021/06/04 07:34:25;;;;;;;5.45;3.58;;;24.40;57.20;;;;;;5055370;28;20013;-60
2021/06/04 07:36:54;;;;;;;6.55;3.60;;;24.30;78.60;;;;;;5054938;28;20364;-60
2021/06/04 07:39:27;;;;;;;8.05;4.30;;;24.50;57.10;;;;;;5055317;28;20070;-60
2021/06/04 07:41:53;;;;;;;5.78;4.15;;;24.30;57.00;;;;;;5055408;28;20433;-60
2021/06/04 07:44:19;;;;;;;7.25;3.88;;;24.80;57.40;;;;;;5055317;28;20021;-60
2021/06/04 07:46:47;;;;;;;8.48;3.83;;;24.40;57.20;;;;;;5055192;28;20139;-59
2021/06/04 07:49:13;;;;;;;5.55;3.42;;;24.30;57.20;;;;;;5055119;28;20040;-60
2021/06/04 07:51:46;;;;;;;7.15;3.72;;;24.40;57.40;;;;;;5054686;28;20025;-60
2021/06/04 07:54:13;;;;;;;8.55;4.05;;;24.40;57.30;;;;;;5053343;28;20120;-60
2021/06/04 07:56:39;;;;;;;11.70;3.83;;;24.40;57.40;;;;;;5054377;28;20530;-60
2021/06/04 07:59:06;;;;;;;7.07;4.05;;;24.50;57.60;;;;;;5054656;28;20029;-60
2021/06/04 08:01:32;;;;;;;5.40;3.75;;;24.30;57.60;;;;;;5054385;28;20387;-60
2021/06/04 08:03:58;;;;;;;8.93;4.10;;;24.40;57.60;;;;;;5054376;28;20172;-60
2021/06/04 08:06:24;;;;;;;6.47;3.67;;;24.40;57.70;;;;;;5054448;28;20116;-60
2021/06/04 08:08:54;;;;;;;11.43;3.78;;;24.40;57.60;;;;;;5054258;28;20044;-60
2021/06/04 08:11:33;;;;;;;5.82;3.50;;;24.70;57.80;;;;;;5054234;28;20021;-60
2021/06/04 08:14:01;;;;;;;8.88;3.65;;;24.40;57.60;;;;;;5054581;28;20029;-60
2021/06/04 08:16:27;;;;;;;6.53;3.88;;;24.40;57.60;;;;;;5054522;28;20083;-60
2021/06/04 08:18:54;;;;;;;6.60;3.90;;;24.40;57.70;;;;;;5054613;28;20310;-60
2021/06/04 08:21:30;;;;;;;5.68;3.50;;;24.50;57.70;;;;;;5052862;28;20063;-60
2021/06/04 08:23:56;;;;;;;3.90;3.30;;;24.50;57.70;;;;;;5054273;28;20060;-60
2021/06/04 08:26:30;;;;;;;5.50;3.70;;;24.50;57.70;;;;;;5053981;28;20076;-60
2021/06/04 08:28:56;;;;;;;4.47;3.40;;;24.50;57.60;;;;;;5054544;28;20447;-60
2021/06/04 08:31:22;;;;;;;6.22;3.60;;;24.60;57.60;;;;;;5054690;28;20061;-60
2021/06/04 08:33:48;;;;;;;4.07;3.10;;;24.70;57.60;;;;;;5054176;28;20086;-60
2021/06/04 08:36:20;;;;;;;3.22;2.92;;;24.60;57.50;;;;;;5054291;28;20442;-60
2021/06/04 08:38:46;;;;;;;5.45;3.70;;;24.60;57.60;;;;;;5054412;28;20375;-60
2021/06/04 08:41:14;;;;;;;3.97;3.55;;;24.60;57.50;;;;;;5054093;28;20021;-61
2021/06/04 08:43:52;;;;;;;4.18;3.55;;;24.60;57.50;;;;;;5054376;28;20025;-59
2021/06/04 08:46:22;;;;;;;5.45;3.33;;;24.60;57.50;;;;;;5054213;28;20037;-59
2021/06/04 08:48:56;;;;;;;5.72;3.30;;;24.60;57.50;;;;;;5054006;28;20017;-60
2021/06/04 08:51:34;;;;;;;4.97;3.63;;;24.60;57.40;;;;;;5052789;28;20028;-60
2021/06/04 08:54:12;;;;;;;5.25;2.95;;;24.70;57.40;;;;;;5054370;28;20052;-60
2021/06/04 08:57:04;;;;;;;4.90;3.60;;;24.70;57.30;;;;;;5052498;28;20041;-59
2021/06/04 08:59:33;;;;;;;4.82;3.80;;;24.70;57.30;;;;;;5043240;28;20024;-59
2021/06/04 09:02:01;;;;;;;5.60;3.83;;;24.70;57.30;;;;;;5053641;28;20021;-59
2021/06/04 09:04:32;;;;;;;4.18;3.20;;;24.70;57.40;;;;;;5053694;28;20032;-59
2021/06/04 09:07:13;;;;;;;3.63;3.33;;;24.80;57.30;;;;;;5053931;28;20040;-59
2021/06/04 09:09:50;;;;;;;5.50;3.58;;;24.80;57.40;;;;;;5053648;28;20188;-59
2021/06/04 09:12:22;;;;;;;5.47;3.58;;;24.80;57.40;;;;;;5053465;28;20021;-59
2021/06/04 09:14:51;;;;;;;4.97;3.72;;;25.20;57.70;;;;;;5053493;28;20025;-59
2021/06/04 09:17:30;;;;;;;4.18;3.58;;;24.60;57.30;;;;;;5052561;28;20056;-58
2021/06/04 09:20:30;;;;;;;3.70;3.22;;;24.90;57.30;;;;;;5053737;28;20453;-59
2021/06/04 09:22:58;;;;;;;;;;;24.90;57.30;;;;;;5054113;28;20021;-59
2021/06/04 09:25:25;;;;;;;9.80;3.88;;;24.90;57.20;;;;;;5053036;28;19909;-58
2021/06/04 09:28:09;;;;;;;5.20;3.50;;;24.90;57.30;;;;;;5053509;28;20029;-59
2021/06/04 09:30:44;;;;;;;5.93;3.63;;;25.00;57.20;;;;;;5053083;28;20073;-59
2021/06/04 09:33:23;;;;;;;4.78;3.25;;;25.30;57.40;;;;;;5052936;28;20060;-59
2021/06/04 09:36:16;;;;;;;6.28;3.30;;;24.90;57.10;;;;;;5052988;28;20021;-59
2021/06/04 09:38:54;;;;;;;5.65;3.65;;;25.00;57.10;;;;;;5053415;28;20033;-58
2021/06/04 09:41:28;;;;;;;6.10;3.28;;;25.00;57.00;;;;;;5053029;28;20032;-58
2021/06/04 09:44:05;;;;;;;6.65;3.83;;;25.00;57.00;;;;;;5053179;28;20017;-59
2021/06/04 09:46:34;;;;;;;4.72;3.70;;;25.00;56.90;;;;;;5053113;28;20065;-59
2021/06/04 09:49:02;;;;;;;3.42;3.13;;;25.10;57.00;;;;;;5051885;28;20108;-59
2021/06/04 09:51:32;;;;;;;5.90;3.20;;;25.00;56.90;;;;;;5053074;28;20032;-59
2021/06/04 09:54:15;;;;;;;;;;;25.10;56.90;;;;;;5053626;28;20422;-59
2021/06/04 09:56:40;;;;;;;4.43;3.20;;;25.10;56.80;;;;;;5052603;28;20357;-59
2021/06/04 09:59:12;;;;;;;6.00;3.85;;;25.20;56.90;;;;;;5052947;28;20055;-59
2021/06/04 10:01:48;;;;;;;6.10;3.20;;;25.30;56.90;;;;;;5052617;28;20060;-59
2021/06/04 10:04:32;;;;;;;5.00;3.75;;;25.20;56.70;;;;;;5052939;28;20063;-59
2021/06/04 10:07:26;;;;;;;5.07;3.45;;;25.20;56.80;;;;;;5052679;28;20037;-59
2021/06/04 10:09:51;;;;;;;3.88;3.20;;;25.50;57.00;;;;;;5052462;28;20679;-59
2021/06/04 10:12:35;;;;;;;6.38;3.30;;;25.20;56.70;;;;;;5052591;28;20133;-59
2021/06/04 10:15:12;;;;;;;5.50;3.85;;;25.20;56.70;;;;;;5051274;28;20025;-59
2021/06/04 10:17:47;;;;;;;4.45;3.08;;;25.20;56.60;;;;;;5051340;28;20032;-60
2021/06/04 10:20:21;;;;;;;3.97;3.47;;;25.50;56.90;;;;;;5051700;28;20114;-59
2021/06/04 10:22:48;;;;;;;4.00;3.22;;;25.30;56.80;;;;;;5052092;28;20494;-59
2021/06/04 10:25:13;;;;;;;8.35;4.30;;;25.20;56.70;;;;;;5052292;28;20033;-59
2021/06/04 10:27:49;;;;;;;4.75;3.40;;;25.50;56.90;;;;;;5052244;28;20040;-60
2021/06/04 10:30:43;;;;;;;4.15;3.75;;;25.30;56.60;;;;;;5052647;28;20029;-59
2021/06/04 10:33:24;;;;;;;4.18;2.90;;;25.30;56.70;;;;;;5052578;28;20032;-59
2021/06/04 10:35:57;;;;;;;3.88;3.40;;;25.30;56.60;;;;;;5053672;28;20032;-59
2021/06/04 10:38:38;;;;;;;4.38;3.35;;;25.30;56.50;;;;;;5056466;28;20021;-59
2021/06/04 10:41:19;;;;;;;5.47;3.40;;;25.30;56.50;;;;;;5056704;28;20063;-59
2021/06/04 10:44:10;;;;;;;4.22;3.67;;;25.30;56.50;;;;;;5056340;28;20032;-59
2021/06/04 10:47:19;;;;;;;4.05;3.35;;;25.40;56.40;;;;;;5056049;28;20041;-59
2021/06/04 10:50:21;;;;;;;4.13;3.00;;;25.40;56.30;;;;;;4994391;28;20026;-59
2021/06/04 10:53:06;;;;;;;3.60;3.20;;;25.40;56.30;;;;;;4994481;28;20034;-59
2021/06/04 10:55:48;;;;;;;4.85;3.10;;;25.40;56.30;;;;;;5048190;28;20427;-59
2021/06/04 10:58:22;;;;;;;7.90;3.00;;;25.50;56.30;;;;;;5055990;28;20024;-59
2021/06/04 11:01:00;;;;;;;6.75;3.63;;;25.50;56.30;;;;;;5054605;28;20052;-59
2021/06/04 11:03:34;;;;;;;5.05;3.60;;;25.50;56.20;;;;;;5055868;28;20053;-59
2021/06/04 11:06:16;;;;;;;4.90;3.25;;;25.70;56.30;;;;;;5055756;28;20060;-59
2021/06/04 11:08:57;;;;;;;7.22;3.55;;;25.50;56.10;;;;;;5055809;28;20468;-59
2021/06/04 11:11:35;;;;;;;4.72;3.60;;;25.60;56.00;;;;;;5055751;28;20067;-58
2021/06/04 11:14:33;;;;;;;4.57;3.28;;;25.60;56.00;;;;;;5056031;28;20115;-58
2021/06/04 11:17:32;;;;;;;4.88;3.17;;;25.60;55.90;;;;;;5056109;28;20045;-58
2021/06/04 11:20:16;;;;;;;4.05;3.00;;;25.70;55.90;;;;;;5055776;28;20061;-59
2021/06/04 11:23:17;;;;;;;5.18;3.35;;;25.70;55.80;;;;;;5055685;28;20047;-58
2021/06/04 11:25:53;;;;;;;4.50;3.25;;;25.70;55.80;;;;;;5021879;28;20032;-59
2021/06/04 11:28:41;;;;;;;5.32;3.10;;;25.70;55.90;;;;;;5055824;28;20025;-58
2021/06/04 11:31:15;;;;;;;5.55;3.00;;;25.70;55.70;;;;;;5055632;28;20029;-56
2021/06/04 11:33:47;;;;;;;4.65;2.90;;;25.80;55.80;;;;;;5055545;28;20029;-59
2021/06/04 11:36:19;;;;;;;4.22;2.90;;;25.80;55.80;;;;;;5055477;28;20361;-58
2021/06/04 11:38:51;;;;;;;5.43;3.22;;;25.80;55.70;;;;;;5054178;28;20027;-58
2021/06/04 11:41:23;;;;;;;4.78;2.95;;;25.70;55.60;;;;;;5055607;28;20036;-59
2021/06/04 11:44:15;;;;;;;3.03;2.65;;;25.80;55.60;;;;;;5055184;28;20515;-58
2021/06/04 11:46:40;;;;;;;6.38;3.25;;;25.90;76.80;;;;;;5046289;28;20559;-60
2021/06/04 11:49:15;;;;;;;4.35;2.95;;;25.80;55.60;;;;;;5055107;28;20152;-61
2021/06/04 11:52:11;;;;;;;4.00;3.17;;;25.90;55.60;;;;;;5055049;28;20017;-61
2021/06/04 11:54:40;;;;;;;3.50;3.10;;;25.90;55.50;;;;;;5054674;28;20056;-60
2021/06/04 11:57:13;;;;;;;3.85;2.88;;;26.00;55.60;;;;;;5055138;28;20044;-60
2021/06/04 11:59:53;;;;;;;3.08;2.78;;;26.00;55.60;;;;;;5055063;28;20048;-61
2021/06/04 12:02:34;;;;;;;4.22;3.10;;;26.00;55.80;;;;;;5055208;28;20025;-61
2021/06/04 12:05:17;;;;;;;4.85;3.33;;;26.10;55.80;;;;;;5055210;28;20417;-61
2021/06/04 12:08:15;;;;;;;4.72;2.75;;;26.10;55.80;;;;;;5054871;28;20037;-61
2021/06/04 12:10:49;;;;;;;3.58;2.85;;;26.10;55.90;;;;;;5055128;28;20021;-61
2021/06/04 12:13:38;;;;;;;3.60;2.92;;;26.10;55.90;;;;;;5055141;28;20028;-61
2021/06/04 12:19:24;;;;;;;5.30;2.70;;;26.20;56.10;;;;;;5054577;28;20430;-61
2021/06/04 12:21:51;;;;;;;2.55;2.35;;;26.30;56.20;;;;;;5053395;28;20025;-61
2021/06/04 12:24:16;;;;;;;5.05;3.00;;;26.30;56.20;;;;;;5054903;28;20028;-60
2021/06/04 12:27:11;;;;;;;3.53;2.63;;;26.30;56.20;;;;;;5054825;28;20365;-60
2021/06/04 12:29:45;;;;;;;3.08;2.70;;;26.30;56.20;;;;;;5027245;28;20365;-61
2021/06/04 12:32:16;;;;;;;3.25;2.92;;;26.40;56.30;;;;;;5054845;28;20017;-61
2021/06/04 12:34:42;;;;;;;3.42;2.75;;;26.40;56.20;;;;;;5054476;28;20020;-61
2021/06/04 12:37:25;;;;;;;2.92;2.53;;;26.40;56.30;;;;;;5054610;28;20422;-61
2021/06/04 12:40:27;;;;;;;2.50;2.30;;;26.40;56.40;;;;;;5054654;28;20384;-61
2021/06/04 12:43:18;;;;;;;3.15;2.53;;;26.40;56.40;;;;;;5054201;28;20104;-61
2021/06/04 12:46:13;;;;;;;4.60;2.60;;;26.40;56.40;;;;;;5054133;28;20039;-61
2021/06/04 12:48:41;;;;;;;4.60;2.58;;;26.50;56.50;;;;;;5054109;28;20043;-61
2021/06/04 12:51:12;;;;;;;3.08;2.75;;;26.50;56.60;;;;;;5054237;28;20028;-61
2021/06/04 12:53:43;;;;;;;4.60;3.00;;;26.60;56.80;;;;;;5053959;28;20480;-60
2021/06/04 12:56:15;;;;;;;3.55;2.35;;;26.40;56.60;;;;;;5053957;28;20044;-60
2021/06/04 12:59:01;;;;;;;2.97;2.55;;;26.50;56.70;;;;;;5053138;28;20024;-60
2021/06/04 13:01:32;;;;;;;2.58;2.38;;;26.50;56.70;;;;;;5038640;28;20124;-60
2021/06/04 13:04:10;;;;;;;2.95;2.60;;;26.50;56.70;;;;;;5053981;28;20037;-59
2021/06/04 13:06:45;;;;;;;2.85;2.38;;;26.70;56.90;;;;;;5053990;28;20040;-60
2021/06/04 13:09:31;;;;;;;3.33;2.40;;;26.60;56.70;;;;;;5052621;28;20017;-60
2021/06/04 13:12:01;;;;;;;4.18;1.90;;;26.60;56.70;;;;;;5053681;28;20033;-60
2021/06/04 13:14:41;;;;;;;3.58;2.42;;;26.60;56.80;;;;;;5053523;28;20027;-60
2021/06/04 13:17:16;;;;;;;3.72;2.53;;;26.60;56.80;;;;;;5053870;28;20108;-60
2021/06/04 13:19:44;;;;;;;3.42;2.35;;;26.60;56.80;;;;;;5053439;28;20025;-60